Time;durP1;ratioP1;P1;durP2;ratioP2;P2;SDS_P1;SDS_P2;PMS_P1;PMS_P2;Temp;Humidity;BMP_temperature;BMP_pressure;BME280_temperature;BME280_humidity;BME280_pressure;Samples;Min_cycle;Max_cycle;Signal;HPM_P1;HPM_P2
2022/09/16 00:01:21;;;;;;;0.95;0.60;;;19.50;59.70;;;;;;5072209;28;20613;-67
2022/09/16 00:03:46;;;;;;;1.15;0.60;;;19.40;59.70;;;;;;5071997;28;20550;-66
2022/09/16 00:06:26;;;;;;;0.77;0.50;;;19.40;59.70;;;;;;5072118;28;20763;-66
2022/09/16 00:08:53;;;;;;;1.10;0.60;;;19.50;59.70;;;;;;5071133;28;20284;-66
2022/09/16 00:11:18;;;;;;;0.45;0.40;;;19.50;59.70;;;;;;5071535;28;20215;-67
2022/09/16 00:13:44;;;;;;;1.15;0.50;;;19.50;59.80;;;;;;5072369;28;20657;-67
2022/09/16 00:16:12;;;;;;;1.48;0.60;;;19.50;59.80;;;;;;5071883;28;20179;-67
2022/09/16 00:18:38;;;;;;;0.77;0.40;;;19.40;59.70;;;;;;5070512;28;20206;-67
2022/09/16 00:21:07;;;;;;;1.13;0.52;;;19.40;59.70;;;;;;5071812;28;20479;-67
2022/09/16 00:23:32;;;;;;;0.80;0.55;;;19.50;59.80;;;;;;5072042;28;20610;-67
2022/09/16 00:25:58;;;;;;;0.68;0.50;;;19.40;59.70;;;;;;5071208;28;20681;-68
2022/09/16 00:28:23;;;;;;;0.95;0.70;;;19.40;59.70;;;;;;5071463;28;20210;-67
2022/09/16 00:30:49;;;;;;;1.63;0.45;;;19.40;59.80;;;;;;5072399;28;20240;-67
2022/09/16 00:33:15;;;;;;;0.93;0.50;;;19.50;59.80;;;;;;5071211;28;20181;-67
2022/09/16 00:35:40;;;;;;;0.30;0.30;;;19.40;59.80;;;;;;5072026;28;20170;-67
2022/09/16 00:38:06;;;;;;;0.95;0.70;;;19.40;59.80;;;;;;5071927;28;20174;-67
2022/09/16 00:40:32;;;;;;;0.40;0.40;;;19.40;59.80;;;;;;5071538;28;20178;-67
2022/09/16 00:42:59;;;;;;;0.73;0.55;;;19.40;59.80;;;;;;5071713;28;20711;-68
2022/09/16 00:45:26;;;;;;;1.75;0.80;;;19.40;59.90;;;;;;5072176;28;20174;-67
2022/09/16 00:47:55;;;;;;;1.02;0.50;;;19.40;59.80;;;;;;5071764;28;20174;-67
2022/09/16 00:50:29;;;;;;;0.63;0.60;;;19.40;59.80;;;;;;5071903;28;20202;-67
2022/09/16 00:52:55;;;;;;;0.50;0.50;;;19.40;59.80;;;;;;5071316;28;20607;-67
2022/09/16 00:55:23;;;;;;;0.60;0.52;;;19.40;59.80;;;;;;5070477;28;20644;-67
2022/09/16 00:57:49;;;;;;;1.25;0.55;;;19.40;59.80;;;;;;5070551;28;20178;-67
2022/09/16 01:00:14;;;;;;;0.40;0.40;;;19.40;59.80;;;;;;5069638;28;20178;-67
2022/09/16 01:02:41;;;;;;;0.68;0.45;;;19.40;59.80;;;;;;5070736;28;20171;-68
2022/09/16 01:05:13;;;;;;;0.57;0.50;;;19.40;59.90;;;;;;5070237;28;20182;-67
2022/09/16 01:07:43;;;;;;;0.75;0.50;;;19.40;59.80;;;;;;5069758;28;20264;-66
2022/09/16 01:10:08;;;;;;;1.02;0.50;;;19.40;59.90;;;;;;5070069;28;20225;-67
2022/09/16 01:12:34;;;;;;;1.00;0.43;;;19.40;59.80;;;;;;5071570;28;20540;-67
2022/09/16 01:15:00;;;;;;;0.95;0.47;;;19.40;59.90;;;;;;5069413;28;20680;-68
2022/09/16 01:17:43;;;;;;;0.90;0.40;;;19.40;59.90;;;;;;5070445;28;20185;-67
2022/09/16 01:20:18;;;;;;;1.00;0.50;;;19.40;59.90;;;;;;5071343;28;20678;-68
2022/09/16 01:22:44;;;;;;;0.82;0.57;;;19.40;59.90;;;;;;5070748;28;20224;-67
2022/09/16 01:25:36;;;;;;;1.35;0.60;;;19.40;59.90;;;;;;5071172;28;20667;-66
2022/09/16 01:28:26;;;;;;;2.00;0.80;;;19.40;60.00;;;;;;5053829;28;20186;-67
2022/09/16 01:31:04;;;;;;;0.75;0.50;;;19.40;60.00;;;;;;5071562;28;20311;-67
2022/09/16 01:33:47;;;;;;;0.45;0.35;;;19.40;59.90;;;;;;5072020;28;20178;-67
2022/09/16 01:36:41;;;;;;;0.95;0.50;;;19.40;59.90;;;;;;5069662;28;20572;-67
2022/09/16 01:39:23;;;;;;;0.95;0.43;;;19.40;60.00;;;;;;5073384;28;20269;-67
2022/09/16 01:42:04;;;;;;;0.52;0.40;;;19.40;60.00;;;;;;5074621;28;20179;-67
2022/09/16 01:44:52;;;;;;;0.50;0.50;;;19.40;60.00;;;;;;5075031;28;20582;-67
2022/09/16 01:47:30;;;;;;;0.90;0.50;;;19.40;60.00;;;;;;5058571;28;20186;-70
2022/09/16 01:49:58;;;;;;;0.95;0.57;;;19.40;60.00;;;;;;5074077;28;20692;-67
2022/09/16 01:52:42;;;;;;;1.30;0.43;;;19.40;60.10;;;;;;5074664;28;20265;-67
2022/09/16 01:55:09;;;;;;;0.68;0.60;;;19.30;60.00;;;;;;5074694;28;20186;-67
2022/09/16 01:57:39;;;;;;;0.93;0.60;;;19.30;60.10;;;;;;5056313;28;20201;-67
2022/09/16 02:00:14;;;;;;;0.50;0.38;;;19.40;60.20;;;;;;5074343;28;20167;-68
2022/09/16 02:02:50;;;;;;;0.57;0.57;;;19.40;60.10;;;;;;5073569;28;20189;-67
2022/09/16 02:05:40;;;;;;;0.73;0.60;;;19.40;60.10;;;;;;5073114;28;20173;-67
2022/09/16 02:08:08;;;;;;;0.43;0.30;;;19.30;60.10;;;;;;5071488;28;20194;-67
2022/09/16 02:10:42;;;;;;;0.50;0.40;;;19.30;61.00;;;;;;5072617;28;20179;-66
2022/09/16 02:13:18;;;;;;;1.10;0.40;;;19.30;60.10;;;;;;5057595;28;20182;-67
2022/09/16 02:15:45;;;;;;;1.40;0.70;;;19.30;60.10;;;;;;5073396;28;20713;-68
2022/09/16 02:18:12;;;;;;;1.55;0.60;;;19.30;60.20;;;;;;5072172;28;20660;-67
2022/09/16 02:20:39;;;;;;;0.82;0.45;;;19.30;61.00;;;;;;5056625;28;20644;-67
2022/09/16 02:23:11;;;;;;;0.40;0.40;;;19.30;60.20;;;;;;5073991;28;20182;-67
2022/09/16 02:25:37;;;;;;;1.30;0.65;;;19.30;60.20;;;;;;5056572;28;20483;-67
2022/09/16 02:28:05;;;;;;;0.43;0.43;;;19.30;60.20;;;;;;5056345;28;20174;-67
2022/09/16 02:30:31;;;;;;;0.55;0.50;;;19.30;60.20;;;;;;5074316;28;20178;-67
2022/09/16 02:32:59;;;;;;;0.40;0.40;;;19.30;60.30;;;;;;5072284;28;20305;-67
2022/09/16 02:35:25;;;;;;;0.55;0.50;;;19.30;60.20;;;;;;5074111;28;20185;-67
2022/09/16 02:37:55;;;;;;;0.80;0.50;;;19.30;60.20;;;;;;5073152;28;20265;-67
2022/09/16 02:40:31;;;;;;;0.30;0.30;;;19.30;60.30;;;;;;5072161;28;20183;-67
2022/09/16 02:42:57;;;;;;;0.70;0.50;;;19.30;60.30;;;;;;5074240;28;20181;-67
2022/09/16 02:45:25;;;;;;;0.40;0.40;;;19.30;60.30;;;;;;5072350;28;20183;-67
2022/09/16 02:47:58;;;;;;;1.20;0.50;;;19.30;60.30;;;;;;5073892;28;20175;-66
2022/09/16 02:50:48;;;;;;;1.38;0.40;;;19.30;60.30;;;;;;5056008;28;20711;-67
2022/09/16 02:53:25;;;;;;;0.55;0.40;;;19.30;60.30;;;;;;5055773;28;20210;-67
2022/09/16 02:55:53;;;;;;;1.90;0.63;;;19.30;60.30;;;;;;5072745;28;20171;-66
2022/09/16 02:58:19;;;;;;;5.00;0.73;;;19.30;60.30;;;;;;5055725;28;20253;-67
2022/09/16 03:00:46;;;;;;;0.40;0.30;;;19.20;60.30;;;;;;5073345;28;20277;-67
2022/09/16 03:03:12;;;;;;;0.57;0.50;;;19.30;60.30;;;;;;5072370;28;20185;-67
2022/09/16 03:05:59;;;;;;;1.75;0.40;;;19.30;60.40;;;;;;5072352;28;20640;-67
2022/09/16 03:08:24;;;;;;;0.77;0.50;;;19.30;60.40;;;;;;5056682;28;20221;-66
2022/09/16 03:10:50;;;;;;;1.45;0.50;;;19.30;60.40;;;;;;5073451;28;20197;-66
2022/09/16 03:13:28;;;;;;;1.25;0.60;;;19.30;60.30;;;;;;5054619;28;20336;-67
2022/09/16 03:16:01;;;;;;;0.82;0.55;;;19.20;60.40;;;;;;5057149;28;20197;-67
2022/09/16 03:18:57;;;;;;;0.95;0.60;;;19.30;60.40;;;;;;5072273;28;20178;-67
2022/09/16 03:21:26;;;;;;;1.92;0.47;;;19.20;60.40;;;;;;5072445;28;20261;-67
2022/09/16 03:24:07;;;;;;;1.00;0.60;;;19.30;60.50;;;;;;5072025;28;20592;-67
2022/09/16 03:26:54;;;;;;;1.30;0.60;;;19.20;60.40;;;;;;5072363;28;20182;-67
2022/09/16 03:29:33;;;;;;;0.45;0.45;;;19.20;60.50;;;;;;5072036;28;20212;-67
2022/09/16 03:32:07;;;;;;;1.98;0.70;;;19.30;60.50;;;;;;5072830;28;20174;-67
2022/09/16 03:34:36;;;;;;;1.17;0.70;;;19.20;60.50;;;;;;5071224;28;20169;-68
2022/09/16 03:37:05;;;;;;;1.40;0.40;;;19.30;60.50;;;;;;5071432;28;20243;-68
2022/09/16 03:39:30;;;;;;;1.02;0.63;;;19.20;60.50;;;;;;5055562;28;20267;-68
2022/09/16 03:42:02;;;;;;;1.00;0.60;;;19.20;60.50;;;;;;5070981;28;20179;-68
2022/09/16 03:44:32;;;;;;;0.32;0.32;;;19.20;60.50;;;;;;5055360;28;20175;-68
2022/09/16 03:46:57;;;;;;;1.38;0.47;;;19.20;60.50;;;;;;5072691;28;20257;-67
2022/09/16 03:49:23;;;;;;;0.88;0.50;;;19.20;60.50;;;;;;5072064;28;20297;-67
2022/09/16 03:51:48;;;;;;;0.52;0.30;;;19.20;60.60;;;;;;5072775;28;20262;-67
2022/09/16 03:54:14;;;;;;;1.08;0.55;;;19.20;60.50;;;;;;5072333;28;20613;-67
2022/09/16 03:56:40;;;;;;;0.60;0.32;;;19.20;60.50;;;;;;5071849;28;20179;-68
2022/09/16 03:59:05;;;;;;;0.77;0.40;;;19.20;60.60;;;;;;5072322;28;20178;-68
2022/09/16 04:01:31;;;;;;;0.52;0.40;;;19.20;60.60;;;;;;5071824;28;20167;-68
2022/09/16 04:03:56;;;;;;;0.85;0.60;;;19.20;60.60;;;;;;5071723;28;20178;-68
2022/09/16 04:06:22;;;;;;;1.20;0.38;;;19.20;60.60;;;;;;5072279;28;20539;-67
2022/09/16 04:08:49;;;;;;;1.67;0.50;;;19.20;60.60;;;;;;5072416;28;20198;-66
2022/09/16 04:11:15;;;;;;;0.70;0.50;;;19.20;60.60;;;;;;5071165;28;20648;-67
2022/09/16 04:13:41;;;;;;;0.40;0.30;;;19.20;60.60;;;;;;5072035;28;20186;-68
2022/09/16 04:16:07;;;;;;;1.30;0.40;;;19.50;60.80;;;;;;5071828;28;20232;-68
2022/09/16 04:18:33;;;;;;;0.45;0.30;;;19.10;60.60;;;;;;5071709;28;20174;-68
2022/09/16 04:20:59;;;;;;;1.27;0.43;;;19.20;60.60;;;;;;5071856;28;20223;-68
2022/09/16 04:23:25;;;;;;;0.73;0.40;;;19.20;60.60;;;;;;5072121;28;20177;-68
2022/09/16 04:26:01;;;;;;;0.57;0.30;;;19.20;60.60;;;;;;5071503;28;20642;-67
2022/09/16 04:28:26;;;;;;;1.27;0.77;;;19.20;60.60;;;;;;5072243;28;20201;-67
2022/09/16 04:30:52;;;;;;;0.40;0.38;;;19.10;60.50;;;;;;5071670;28;20901;-67
2022/09/16 04:33:18;;;;;;;0.77;0.43;;;19.20;60.60;;;;;;5071801;28;20526;-68
2022/09/16 04:35:43;;;;;;;1.17;0.60;;;19.10;60.60;;;;;;5072231;28;20170;-68
2022/09/16 04:38:09;;;;;;;0.73;0.50;;;19.20;60.60;;;;;;5071066;28;20171;-68
2022/09/16 04:40:34;;;;;;;1.30;0.50;;;19.10;60.60;;;;;;5071947;28;20170;-68
2022/09/16 04:42:59;;;;;;;0.68;0.45;;;19.20;60.70;;;;;;5072017;28;20183;-69
2022/09/16 04:45:25;;;;;;;0.65;0.50;;;19.20;60.70;;;;;;5071362;28;20174;-68
2022/09/16 04:47:57;;;;;;;0.63;0.52;;;19.20;60.70;;;;;;5071917;28;20753;-67
2022/09/16 04:50:23;;;;;;;1.33;0.45;;;19.20;60.70;;;;;;5071927;28;20201;-68
2022/09/16 04:52:50;;;;;;;0.47;0.30;;;19.20;60.70;;;;;;5071352;28;20167;-67
2022/09/16 04:55:16;;;;;;;1.27;0.60;;;19.20;60.70;;;;;;5071513;28;20178;-67
2022/09/16 04:57:42;;;;;;;0.50;0.47;;;19.10;60.70;;;;;;5071799;28;20526;-68
2022/09/16 05:00:08;;;;;;;0.60;0.30;;;19.10;60.70;;;;;;5071113;28;20175;-68
2022/09/16 05:02:33;;;;;;;0.40;0.40;;;19.10;60.80;;;;;;5071808;28;20190;-68
2022/09/16 05:04:59;;;;;;;0.32;0.30;;;19.20;60.70;;;;;;5071427;28;20174;-67
2022/09/16 05:07:24;;;;;;;0.55;0.47;;;19.10;60.70;;;;;;5070939;28;20590;-67
2022/09/16 05:09:50;;;;;;;0.95;0.40;;;19.20;60.80;;;;;;5071420;28;20680;-67
2022/09/16 05:12:15;;;;;;;0.57;0.57;;;19.10;60.70;;;;;;5071136;28;20324;-67
2022/09/16 05:14:41;;;;;;;1.33;0.60;;;19.10;60.70;;;;;;5074382;28;20170;-68
2022/09/16 05:17:07;;;;;;;0.43;0.28;;;19.10;60.80;;;;;;5075418;28;20220;-68
2022/09/16 05:19:32;;;;;;;0.40;0.40;;;19.10;60.70;;;;;;5075600;28;20220;-68
2022/09/16 05:21:58;;;;;;;1.00;0.38;;;19.10;60.70;;;;;;5074392;28;20248;-67
2022/09/16 05:24:23;;;;;;;0.88;0.40;;;19.10;60.70;;;;;;5075179;28;20672;-68
2022/09/16 05:26:49;;;;;;;0.55;0.45;;;19.10;60.70;;;;;;5074574;28;20264;-67
2022/09/16 05:29:18;;;;;;;0.85;0.50;;;19.10;60.80;;;;;;5074951;28;20263;-67
2022/09/16 05:31:46;;;;;;;0.75;0.60;;;19.10;60.80;;;;;;5075222;28;20206;-68
2022/09/16 05:34:12;;;;;;;0.82;0.45;;;19.10;60.80;;;;;;5074276;28;20175;-67
2022/09/16 05:36:38;;;;;;;0.77;0.50;;;19.10;60.80;;;;;;5074888;28;20257;-68
2022/09/16 05:39:04;;;;;;;0.60;0.45;;;19.10;60.80;;;;;;5074753;28;20274;-68
2022/09/16 05:41:30;;;;;;;1.10;0.52;;;19.10;60.80;;;;;;5074605;28;20194;-70
2022/09/16 05:43:58;;;;;;;1.42;0.38;;;19.10;60.80;;;;;;5075035;28;20217;-68
2022/09/16 05:46:24;;;;;;;2.33;0.73;;;19.20;60.80;;;;;;5075167;28;20190;-67
2022/09/16 05:48:49;;;;;;;2.28;0.63;;;19.20;61.00;;;;;;5074250;28;20202;-67
2022/09/16 05:51:19;;;;;;;1.05;0.55;;;19.10;60.90;;;;;;5074600;28;20209;-71
2022/09/16 05:53:45;;;;;;;1.25;0.50;;;19.20;61.00;;;;;;5074911;28;20261;-67
2022/09/16 05:56:13;;;;;;;6.10;1.10;;;19.20;61.00;;;;;;5074134;28;20190;-67
2022/09/16 05:58:39;;;;;;;0.82;0.60;;;19.20;61.00;;;;;;5075001;28;20588;-71
2022/09/16 06:01:06;;;;;;;2.70;0.88;;;19.10;61.10;;;;;;5074655;28;20258;-69
2022/09/16 06:03:33;;;;;;;2.60;0.90;;;19.20;61.40;;;;;;5074085;28;20167;-70
2022/09/16 06:06:03;;;;;;;4.53;1.00;;;19.20;61.20;;;;;;5074317;28;20226;-68
2022/09/16 06:08:29;;;;;;;1.98;0.75;;;19.30;61.30;;;;;;5074940;28;20202;-69
2022/09/16 06:10:55;;;;;;;3.47;0.95;;;19.30;61.30;;;;;;5074118;28;20175;-69
2022/09/16 06:13:20;;;;;;;3.50;0.82;;;19.30;61.30;;;;;;5074499;28;20178;-70
2022/09/16 06:15:50;;;;;;;2.97;0.70;;;19.30;61.20;;;;;;5074594;28;20180;-71
2022/09/16 06:18:17;;;;;;;5.65;1.38;;;19.30;61.20;;;;;;5073587;28;20175;-67
2022/09/16 06:20:43;;;;;;;3.88;0.90;;;19.30;61.60;;;;;;5074577;28;20320;-71
2022/09/16 06:23:09;;;;;;;5.63;0.68;;;19.30;61.20;;;;;;5073668;28;20249;-70
2022/09/16 06:25:34;;;;;;;1.98;0.60;;;19.30;61.30;;;;;;5073229;28;20202;-69
2022/09/16 06:28:00;;;;;;;3.80;0.90;;;19.30;61.30;;;;;;5074017;28;20170;-69
2022/09/16 06:30:26;;;;;;;7.63;1.20;;;19.30;61.30;;;;;;5073791;28;20174;-69
2022/09/16 06:32:51;;;;;;;3.53;0.70;;;19.30;61.40;;;;;;5074070;28;20509;-70
2022/09/16 06:35:17;;;;;;;2.75;0.70;;;19.30;61.40;;;;;;5073887;28;20232;-72
2022/09/16 06:37:42;;;;;;;4.18;1.00;;;19.20;61.40;;;;;;5073745;28;20248;-72
2022/09/16 06:40:08;;;;;;;1.98;0.95;;;19.30;61.60;;;;;;5074045;28;20247;-66
2022/09/16 06:42:34;;;;;;;5.80;0.75;;;19.30;61.50;;;;;;5074251;28;20632;-67
2022/09/16 06:44:59;;;;;;;2.45;0.80;;;19.30;61.60;;;;;;5072966;28;20268;-69
2022/09/16 06:47:25;;;;;;;3.08;0.80;;;19.30;61.60;;;;;;5073978;28;20174;-68
2022/09/16 06:49:51;;;;;;;3.95;1.23;;;19.40;61.70;;;;;;5073811;28;20213;-69
2022/09/16 06:52:18;;;;;;;4.82;1.40;;;19.40;61.60;;;;;;5072389;28;20178;-70
2022/09/16 06:54:43;;;;;;;6.85;0.90;;;19.30;61.40;;;;;;5073995;28;20204;-68
2022/09/16 06:57:09;;;;;;;6.25;1.02;;;19.40;61.50;;;;;;5073517;28;20166;-70
2022/09/16 06:59:34;;;;;;;5.80;0.95;;;19.40;61.50;;;;;;5073134;28;20289;-70
2022/09/16 07:02:00;;;;;;;5.85;0.80;;;19.30;61.40;;;;;;5073443;28;20316;-70
2022/09/16 07:04:26;;;;;;;2.80;0.77;;;19.30;61.30;;;;;;5073648;28;20185;-70
2022/09/16 07:06:51;;;;;;;4.10;0.70;;;19.40;61.40;;;;;;5072868;28;20226;-68
2022/09/16 07:09:17;;;;;;;2.83;0.70;;;19.40;61.40;;;;;;5073425;28;20210;-69
2022/09/16 07:11:42;;;;;;;2.33;1.00;;;19.40;61.50;;;;;;5073580;28;20198;-69
2022/09/16 07:14:08;;;;;;;6.50;0.98;;;19.40;61.50;;;;;;5072619;28;20182;-70
2022/09/16 07:16:34;;;;;;;2.38;0.98;;;19.40;61.40;;;;;;5073294;28;20171;-71
2022/09/16 07:18:59;;;;;;;1.75;0.40;;;19.40;61.40;;;;;;5073091;28;20356;-70
2022/09/16 07:21:28;;;;;;;1.50;0.75;;;19.40;61.40;;;;;;5072571;28;20265;-71
2022/09/16 07:23:54;;;;;;;1.10;0.65;;;19.50;61.30;;;;;;5073214;28;20209;-69
2022/09/16 07:26:21;;;;;;;1.50;0.68;;;19.50;61.20;;;;;;5072979;28;20202;-69
2022/09/16 07:28:47;;;;;;;1.75;0.80;;;19.50;61.10;;;;;;5072972;28;20214;-69
2022/09/16 07:31:19;;;;;;;2.13;0.80;;;19.50;61.10;;;;;;5072870;28;20178;-69
2022/09/16 07:33:47;;;;;;;1.67;0.70;;;19.50;61.10;;;;;;5072542;28;20189;-70
2022/09/16 07:36:17;;;;;;;2.38;0.77;;;19.50;61.10;;;;;;5072585;28;20606;-70
2022/09/16 07:38:42;;;;;;;1.50;0.60;;;19.50;61.00;;;;;;5073022;28;20269;-70
2022/09/16 07:41:13;;;;;;;1.45;0.70;;;19.50;61.10;;;;;;5071851;28;20308;-70
2022/09/16 07:43:39;;;;;;;2.10;0.85;;;19.50;61.20;;;;;;5072840;28;20649;-70
2022/09/16 07:46:05;;;;;;;2.08;0.68;;;19.50;61.10;;;;;;5072503;28;20236;-69
2022/09/16 07:48:30;;;;;;;1.00;0.52;;;19.50;61.30;;;;;;5072218;28;20558;-69
2022/09/16 07:51:01;;;;;;;1.50;0.90;;;19.50;61.30;;;;;;5072723;28;20289;-68
2022/09/16 07:53:28;;;;;;;2.40;0.65;;;19.50;61.40;;;;;;5072866;28;20261;-68
2022/09/16 07:55:54;;;;;;;1.95;0.90;;;19.50;61.10;;;;;;5071988;28;20190;-68
2022/09/16 07:58:20;;;;;;;2.15;1.15;;;19.60;60.90;;;;;;5072404;28;20186;-69
2022/09/16 08:00:46;;;;;;;2.65;0.70;;;19.70;60.90;;;;;;5072600;28;20178;-69
2022/09/16 08:03:11;;;;;;;2.65;0.80;;;19.70;60.90;;;;;;5053657;28;20186;-69
2022/09/16 08:05:37;;;;;;;2.97;0.80;;;19.70;60.90;;;;;;5072580;28;20174;-68
2022/09/16 08:08:02;;;;;;;2.33;0.50;;;19.70;61.10;;;;;;5072401;28;20185;-68
2022/09/16 08:10:28;;;;;;;2.35;0.63;;;19.70;60.90;;;;;;5071781;28;20178;-68
2022/09/16 08:12:54;;;;;;;1.27;0.63;;;19.70;60.90;;;;;;5072382;28;20177;-69
2022/09/16 08:15:19;;;;;;;3.28;0.80;;;19.70;60.90;;;;;;5072160;28;20534;-70
2022/09/16 08:17:45;;;;;;;1.80;0.60;;;19.70;61.00;;;;;;5071709;28;20513;-69
2022/09/16 08:20:10;;;;;;;1.02;0.68;;;19.80;61.00;;;;;;5072038;28;20178;-69
2022/09/16 08:22:36;;;;;;;1.75;0.73;;;19.80;60.80;;;;;;5072476;28;20178;-69
2022/09/16 08:25:01;;;;;;;1.10;0.47;;;19.80;60.70;;;;;;5071524;28;20170;-69
2022/09/16 08:27:27;;;;;;;1.02;0.68;;;19.90;60.70;;;;;;5072163;28;20272;-68
2022/09/16 08:29:52;;;;;;;0.98;0.50;;;19.80;60.60;;;;;;5071347;28;20292;-69
2022/09/16 08:32:18;;;;;;;2.55;0.88;;;19.90;60.60;;;;;;5072111;28;20646;-68
2022/09/16 08:34:43;;;;;;;2.15;0.77;;;19.90;60.60;;;;;;5072117;28;20269;-69
2022/09/16 08:37:09;;;;;;;0.80;0.50;;;19.90;60.40;;;;;;5071210;28;20174;-69
2022/09/16 08:39:34;;;;;;;1.60;0.80;;;20.00;60.50;;;;;;5072183;28;20174;-69
2022/09/16 08:42:17;;;;;;;2.83;0.68;;;20.00;60.20;;;;;;5071835;28;20210;-70
2022/09/16 08:45:09;;;;;;;1.50;0.60;;;20.00;60.40;;;;;;5070597;28;20183;-69
2022/09/16 08:47:41;;;;;;;1.13;0.57;;;20.10;60.40;;;;;;5069308;28;20182;-69
2022/09/16 08:50:14;;;;;;;1.30;0.50;;;20.10;60.40;;;;;;5074639;28;20210;-68
2022/09/16 08:52:40;;;;;;;0.95;0.50;;;20.10;60.20;;;;;;5058195;28;20174;-69
2022/09/16 08:55:05;;;;;;;0.90;0.50;;;20.20;60.30;;;;;;5074579;28;20532;-69
2022/09/16 08:57:34;;;;;;;1.33;0.68;;;20.20;60.20;;;;;;5076338;28;20281;-69
2022/09/16 09:00:04;;;;;;;1.92;0.77;;;20.20;60.20;;;;;;5057366;28;20182;-70
2022/09/16 09:02:42;;;;;;;1.77;0.60;;;20.20;60.10;;;;;;5076103;28;20174;-70
2022/09/16 09:05:22;;;;;;;1.25;0.40;;;20.20;60.10;;;;;;5073896;28;20544;-69
2022/09/16 09:08:06;;;;;;;0.80;0.60;;;20.20;60.30;;;;;;5075838;28;20222;-68
2022/09/16 09:10:51;;;;;;;1.33;0.60;;;20.10;60.30;;;;;;5074798;28;20220;-69
2022/09/16 09:13:43;;;;;;;1.17;0.50;;;20.10;60.20;;;;;;5074743;28;20691;-69
2022/09/16 09:16:18;;;;;;;1.58;0.55;;;20.10;60.40;;;;;;5069024;28;20534;-70
2022/09/16 09:18:52;;;;;;;1.83;0.63;;;20.10;60.50;;;;;;5075647;28;20223;-70
2022/09/16 09:21:33;;;;;;;1.23;0.70;;;20.00;60.60;;;;;;5073596;28;20207;-69
2022/09/16 09:24:05;;;;;;;1.00;0.40;;;20.10;60.70;;;;;;5075424;28;20170;-70
2022/09/16 09:26:49;;;;;;;1.20;0.57;;;20.10;60.50;;;;;;5074730;28;20182;-69
2022/09/16 09:29:33;;;;;;;0.95;0.80;;;20.20;60.30;;;;;;5073916;28;20202;-68
2022/09/16 09:32:20;;;;;;;1.90;0.50;;;20.20;60.20;;;;;;5058182;28;20521;-68
2022/09/16 09:35:09;;;;;;;2.05;0.50;;;20.30;60.00;;;;;;5074718;28;20175;-69
2022/09/16 09:38:17;;;;;;;0.90;0.50;;;20.30;60.00;;;;;;5059323;28;20267;-69
2022/09/16 09:40:51;;;;;;;1.13;0.60;;;20.30;59.90;;;;;;5074433;28;20204;-68
2022/09/16 09:43:23;;;;;;;0.60;0.45;;;20.40;59.80;;;;;;5073989;28;20285;-70
2022/09/16 09:46:06;;;;;;;2.00;0.40;;;20.40;59.80;;;;;;5075065;28;20632;-68
2022/09/16 09:48:38;;;;;;;0.95;0.45;;;20.40;59.60;;;;;;5072987;28;20285;-68
2022/09/16 09:51:20;;;;;;;1.63;0.50;;;20.40;59.80;;;;;;5073505;28;20254;-68
2022/09/16 09:53:51;;;;;;;1.08;0.52;;;20.40;59.80;;;;;;5058433;28;20166;-68
2022/09/16 09:56:37;;;;;;;2.13;0.88;;;20.40;59.90;;;;;;5072808;28;20186;-69
2022/09/16 09:59:24;;;;;;;0.73;0.47;;;20.40;59.80;;;;;;5073474;28;20253;-70
2022/09/16 10:01:54;;;;;;;0.73;0.43;;;20.50;59.70;;;;;;5074112;28;20636;-69
2022/09/16 10:04:20;;;;;;;2.60;0.73;;;20.60;59.60;;;;;;5074684;28;20204;-69
2022/09/16 10:06:46;;;;;;;0.90;0.60;;;20.60;59.60;;;;;;5074466;28;20214;-68
2022/09/16 10:09:13;;;;;;;1.38;0.52;;;20.60;59.50;;;;;;5072391;28;20214;-68
2022/09/16 10:11:49;;;;;;;1.27;0.60;;;20.60;59.50;;;;;;5056743;28;20598;-68
2022/09/16 10:14:25;;;;;;;0.88;0.55;;;20.50;59.60;;;;;;5074300;28;20587;-70
2022/09/16 10:16:51;;;;;;;2.05;0.60;;;20.50;59.50;;;;;;5073821;28;20258;-70
2022/09/16 10:19:18;;;;;;;1.83;0.77;;;20.60;59.30;;;;;;5072790;28;20756;-70
2022/09/16 10:21:50;;;;;;;0.45;0.40;;;20.60;59.30;;;;;;5073746;28;20257;-69
2022/09/16 10:24:33;;;;;;;1.45;0.50;;;20.70;59.30;;;;;;5073279;28;20644;-70
2022/09/16 10:27:00;;;;;;;1.10;0.60;;;20.70;59.20;;;;;;5074299;28;20273;-67
2022/09/16 10:29:25;;;;;;;4.22;1.20;;;20.70;59.30;;;;;;5075456;28;20210;-69
2022/09/16 10:31:51;;;;;;;4.13;0.65;;;20.60;59.30;;;;;;5056546;28;20174;-69
2022/09/16 10:34:33;;;;;;;2.58;0.50;;;20.50;59.30;;;;;;5072790;28;20236;-69
2022/09/16 10:37:18;;;;;;;2.90;1.00;;;20.50;59.40;;;;;;5073413;28;20254;-68
2022/09/16 10:39:50;;;;;;;2.50;0.70;;;20.60;59.40;;;;;;5073020;28;20193;-68
2022/09/16 10:42:26;;;;;;;1.63;0.43;;;20.60;59.40;;;;;;5074079;28;20175;-68
2022/09/16 10:44:58;;;;;;;3.08;0.88;;;20.70;59.30;;;;;;5072160;28;20213;-68
2022/09/16 10:47:27;;;;;;;2.67;0.85;;;20.70;59.30;;;;;;5056921;28;20660;-67
2022/09/16 10:50:15;;;;;;;1.17;0.50;;;20.80;59.30;;;;;;5072509;28;20217;-67
2022/09/16 10:52:42;;;;;;;2.10;0.65;;;20.80;59.30;;;;;;5071858;28;20577;-67
2022/09/16 10:55:27;;;;;;;1.55;0.50;;;20.80;59.30;;;;;;5073504;28;20296;-67
2022/09/16 10:58:04;;;;;;;2.17;0.60;;;20.80;59.30;;;;;;5073271;28;20175;-67
2022/09/16 11:00:30;;;;;;;2.55;0.57;;;20.90;59.30;;;;;;5074043;28;20181;-66
2022/09/16 11:03:27;;;;;;;1.05;0.45;;;20.90;59.10;;;;;;5072585;28;20178;-67
2022/09/16 11:06:05;;;;;;;3.58;0.82;;;20.90;59.00;;;;;;5055641;28;20303;-65
2022/09/16 11:08:39;;;;;;;2.83;0.50;;;20.90;58.90;;;;;;5072095;28;20680;-67
2022/09/16 11:11:19;;;;;;;2.15;0.57;;;21.00;58.90;;;;;;5072833;28;20260;-67
2022/09/16 11:13:51;;;;;;;1.92;0.55;;;21.00;58.80;;;;;;5071693;28;20178;-68
2022/09/16 11:16:29;;;;;;;2.50;0.98;;;21.00;58.80;;;;;;5072962;28;20197;-67
2022/09/16 11:19:11;;;;;;;2.85;0.77;;;21.00;58.80;;;;;;5071313;28;20217;-68
2022/09/16 11:21:44;;;;;;;0.98;0.60;;;21.00;58.60;;;;;;5071884;28;20551;-68
2022/09/16 11:24:43;;;;;;;0.82;0.50;;;20.90;58.70;;;;;;5072885;28;20652;-67
2022/09/16 11:27:12;;;;;;;1.25;0.60;;;20.80;58.80;;;;;;5072430;28;20174;-67
2022/09/16 11:30:00;;;;;;;2.85;0.35;;;20.90;58.80;;;;;;5073230;28;20217;-67
2022/09/16 11:32:59;;;;;;;2.42;0.60;;;20.90;58.70;;;;;;5071919;28;20274;-67
2022/09/16 11:35:30;;;;;;;1.15;0.70;;;20.90;58.50;;;;;;5073345;28;20167;-67
2022/09/16 11:38:43;;;;;;;0.32;0.30;;;20.90;58.60;;;;;;5073079;28;20185;-68
2022/09/16 11:41:41;;;;;;;1.55;0.50;;;20.80;58.70;;;;;;5068769;28;20628;-68
2022/09/16 11:44:38;;;;;;;1.88;0.57;;;20.70;58.80;;;;;;5072760;28;20210;-68
2022/09/16 11:47:10;;;;;;;2.65;0.57;;;20.70;58.80;;;;;;5070328;28;20248;-67
2022/09/16 11:49:58;;;;;;;1.88;0.60;;;20.70;58.90;;;;;;5071557;28;20211;-67
2022/09/16 11:52:51;;;;;;;0.82;0.50;;;20.70;58.80;;;;;;5072712;28;20200;-67
2022/09/16 11:55:44;;;;;;;2.75;0.70;;;20.80;58.70;;;;;;5071886;28;20186;-67
2022/09/16 11:58:25;;;;;;;1.98;0.68;;;20.90;58.50;;;;;;5056952;28;20174;-68
2022/09/16 12:00:51;;;;;;;1.83;0.50;;;20.90;58.40;;;;;;5072172;28;20241;-68
2022/09/16 12:03:58;;;;;;;2.10;0.50;;;20.90;58.30;;;;;;5071184;28;20171;-67
2022/09/16 12:06:24;;;;;;;1.52;0.30;;;20.70;58.40;;;;;;5060982;28;20344;-67
2022/09/16 12:09:03;;;;;;;1.80;0.43;;;20.60;58.50;;;;;;5070730;28;20214;-66
2022/09/16 12:11:32;;;;;;;1.13;0.55;;;20.70;58.60;;;;;;5071253;28;20675;-67
2022/09/16 12:14:14;;;;;;;2.42;0.57;;;20.70;58.40;;;;;;5071108;28;20201;-68
2022/09/16 12:16:44;;;;;;;2.85;0.50;;;20.70;58.40;;;;;;5070662;28;20170;-68
2022/09/16 12:19:21;;;;;;;2.75;0.68;;;20.80;58.40;;;;;;5072712;28;20197;-68
2022/09/16 12:22:05;;;;;;;0.90;0.63;;;20.80;58.20;;;;;;5070778;28;20185;-67
2022/09/16 12:24:36;;;;;;;0.70;0.50;;;20.80;58.10;;;;;;5055136;28;20228;-67
2022/09/16 12:27:06;;;;;;;1.83;0.40;;;20.90;58.10;;;;;;5070975;28;20174;-68
2022/09/16 12:29:55;;;;;;;1.60;0.60;;;20.90;58.00;;;;;;5070374;28;20292;-66
2022/09/16 12:32:31;;;;;;;1.27;0.50;;;20.90;57.90;;;;;;5072124;28;20174;-67
2022/09/16 12:35:11;;;;;;;1.00;0.40;;;20.90;57.90;;;;;;5055294;28;20174;-67
2022/09/16 12:37:46;;;;;;;1.10;0.55;;;20.90;57.80;;;;;;5070336;28;20257;-67
2022/09/16 12:40:22;;;;;;;2.05;0.98;;;21.00;57.70;;;;;;5072065;28;20280;-68
2022/09/16 12:42:55;;;;;;;1.08;0.70;;;21.00;57.60;;;;;;5055249;28;20189;-67
2022/09/16 12:45:27;;;;;;;1.45;0.40;;;21.10;57.50;;;;;;5070778;28;20555;-67
2022/09/16 12:48:14;;;;;;;3.63;0.82;;;21.10;57.50;;;;;;5070919;28;20186;-67
2022/09/16 12:51:10;;;;;;;1.20;0.40;;;21.10;57.40;;;;;;5071914;28;20190;-66
2022/09/16 12:53:48;;;;;;;1.55;0.63;;;21.10;57.40;;;;;;5070862;28;20178;-67
2022/09/16 12:56:30;;;;;;;1.35;0.80;;;21.20;57.40;;;;;;5070503;28;20671;-67
2022/09/16 12:59:33;;;;;;;2.70;0.63;;;21.20;57.30;;;;;;5070445;28;20189;-67
2022/09/16 13:02:02;;;;;;;1.30;0.63;;;21.20;57.20;;;;;;5071684;28;20178;-67
2022/09/16 13:04:31;;;;;;;2.00;0.43;;;21.20;57.30;;;;;;5053763;28;20265;-67
2022/09/16 13:07:00;;;;;;;0.88;0.55;;;21.30;57.20;;;;;;5053967;28;20237;-66
2022/09/16 13:09:32;;;;;;;1.20;0.40;;;21.40;57.00;;;;;;5072198;28;20218;-66
2022/09/16 13:11:59;;;;;;;1.15;0.40;;;21.40;56.90;;;;;;5053546;28;20547;-67